• Join FlightAware (Why Join?)
  • Login
  • US Flag 
11:07AM EDT


 

Airport Tracker/Info


-or-


 

Live Flight TrackerFlight Track Log ✈ EJA941 ✈ 12-Aug-2013 ✈ KACK - KTEB

Flight Track Log - Related Links

Times and Time Zones

All times are in EDT time to prevent confusion due to time zone crossing. See the EJA941 flight status page for this flight to view local times or setup timezone preferences in your user account.

Time Position Orientation Groundspeed Altitude Reporting Facility
EDT Latitude Longitude Course Direction KTS MPH feet Rate Location/Type
02:47PM 41.2975 -70.1439 284° West 223 257 7,100  Level Boston Center
02:48PM 41.3806 -70.1328 North 241 277 11,100 2,820 Climbing Boston Center
02:49PM 41.4700 -70.1183 North 304 350 12,800 1,560 Climbing Boston Center
02:50PM 41.5719 -70.1092 North 325 374 14,300 1,560 Climbing Boston Center
02:51PM 41.8003 -70.0333 North  Level FlightAware Approximate
02:51PM 41.6364 -70.2014 313° West 315 362 16,000  Level Boston Center
02:52PM 41.9104 -70.0333 North  Level FlightAware Approximate
02:52PM 41.6636 -70.3281 286° West 312 359 17,500  Level Boston Center
02:53PM 42.0176 -70.0385 284° West  Level FlightAware Approximate
02:53PM 41.6933 -70.4633 286° West 341 392 19,000  Level Boston Center
02:54PM 41.7161 -70.5850 284° West 347 399 20,300 1,380 Climbing Boston Center
02:55PM 41.7475 -70.7233 287° West 366 421 21,900 840 Climbing Boston Center
02:56PM 41.7811 -70.8728 287° West 381 438 22,000  Climbing Boston Center
02:57PM 41.8122 -71.0194 286° West 412 474 22,000  Level Boston Center
02:58PM 41.8389 -71.1667 284° West 412 474 22,000  Level Boston Center
02:59PM 41.8614 -71.3167 281° West 412 474 22,000  Level Boston Center
03:00PM 41.8794 -71.4697 279° West 412 474 22,000  Level Boston Center
03:01PM 41.8953 -71.6231 278° West 412 474 22,000  Level Boston Center
03:02PM 41.9128 -71.7733 279° West 412 474 22,000  Level Boston Center
03:03PM 41.9303 -71.9267 279° West 412 474 22,000  Level Boston Center
03:04PM 41.9453 -72.0467 280° West 412 474 22,000 -780 Level Boston Center
03:05PM 41.9667 -72.2250 279° West 412 474 20,400 -1,860 Descending Boston Center
03:06PM 41.9878 -72.4039 279° West 407 468 17,900 -2,220 Descending Boston Center
03:07PM 42.0022 -72.5575 277° West 412 474 16,000 -960 Descending Boston Center
03:08PM 42.0186 -72.6944 279° West 412 474 16,000  Level Boston Center
03:09PM 42.0328 -72.8342 278° West 407 468 16,000  Level Boston Center
03:10PM 42.0511 -72.9908 279° West 390 449 16,000  Level Boston Center
03:11PM 42.0650 -73.1197 278° West 390 449 16,000  Level Boston Center
03:12PM 42.0825 -73.2792 278° West 390 449 16,000  Level Boston Center
03:13PM 42.0939 -73.4164 276° West 396 456 16,000  Level Boston Center
03:14PM 42.1050 -73.5650 276° West 401 461 16,000  Level Boston Center
03:15PM 42.0931 -73.7131 264° West 402 463 16,000  Level Boston Center
03:16PM 42.0808 -73.8750 264° West 396 456 16,000  Level Boston Center
03:17PM 42.0603 -74.0089 258° West 407 468 16,000  Level Boston Center
03:18PM 41.9794 -74.1131 224° Southwest 397 457 16,100 -480 Climbing Boston Center
03:19PM 41.8761 -74.2022 213° Southwest 397 457 15,100 -1,320 Descending Boston Center
03:20PM 41.7936 -74.2722 212° Southwest 397 457 13,500 -1,920 Descending Boston Center
03:21PM 41.6986 -74.3531 212° Southwest 386 444 11,300 -1,980 Descending Boston Center
03:22PM 41.6308 -74.4092 212° Southwest 349 402 9,600 -1,620 Descending Boston Center
03:23PM 41.5569 -74.4708 212° Southwest 307 353 8,100 -1,560 Descending Boston Center
03:24PM 41.4975 -74.5189 211° Southwest 280 322 6,500 -780 Descending Boston Center
03:26PM 41.3833 -74.6000 208° Southwest 263 303 6,100 -180 Descending New York TRACON
03:27PM 41.3167 -74.6333 201° Southwest 278 320 6,100 -360 Level New York TRACON
03:28PM 41.2333 -74.6333 180° South 285 328 5,400 -1,020 Descending New York TRACON
03:29PM 41.1833 -74.5833 143° Southeast 278 320 4,100 -660 Descending New York TRACON
03:30PM 41.1500 -74.4833 114° Southeast 268 308 4,100  Level New York TRACON
03:31PM 41.1333 -74.4000 105° East 269 310 4,100 -300 Level New York TRACON
03:32PM 41.1000 -74.3000 114° Southeast 268 308 3,500 -540 Descending New York TRACON
03:33PM 41.0833 -74.2167 105° East 263 303 3,100 -240 Descending New York TRACON
03:34PM 41.0500 -74.1333 118° Southeast 213 245 3,100 -480 Level New York TRACON
03:35PM 41.0333 -74.0667 108° East 195 224 2,200 -480 Descending New York TRACON
03:36PM 41.0000 -74.0500 159° South 179 206 2,200 -300 Level New York TRACON
03:37PM 40.9500 -74.0500 180° South 178 205 1,700 -660 Descending New York TRACON
03:38PM 40.9000 -74.0500 180° South 170 196 900 -840 Descending New York TRACON